Time;durP1;ratioP1;P1;durP2;ratioP2;P2;SDS_P1;SDS_P2;PMS_P1;PMS_P2;Temp;Humidity;BMP_temperature;BMP_pressure;BME280_temperature;BME280_humidity;BME280_pressure;Samples;Min_cycle;Max_cycle;Signal;HPM_P1;HPM_P2
2021/12/05 00:21:40;;;;;;;9.40;3.40;;;;;;;5.47;87.30;98110.53;5045791;28;20194;-77
2021/12/05 00:24:11;;;;;;;3.25;2.65;;;;;;;5.53;86.77;98111.00;5051413;28;20309;-77
2021/12/05 00:26:39;;;;;;;4.88;2.97;;;;;;;5.53;86.30;98107.47;5050208;28;20225;-77
2021/12/05 00:29:17;;;;;;;5.82;2.97;;;;;;;5.65;85.72;98114.72;5050898;28;20266;-77
2021/12/05 00:46:00;;;;;;;9.88;3.00;;;;;;;5.61;85.23;98111.41;5039219;28;20656;-73
2021/12/05 00:54:58;;;;;;;6.07;2.10;;;;;;;5.41;85.32;98106.44;5031066;28;20550;-73
2021/12/05 00:57:40;;;;;;;8.68;2.08;;;;;;;5.43;85.17;98102.72;5044158;28;20198;-74
2021/12/05 01:08:58;;;;;;;3.67;2.22;;;;;;;5.44;84.94;98083.06;5030506;28;20198;-72
2021/12/05 01:11:47;;;;;;;4.88;2.50;;;;;;;5.35;85.75;98085.44;5030814;28;20210;-72
2021/12/05 01:14:27;;;;;;;8.10;2.60;;;;;;;5.41;85.92;98088.59;5030757;28;20222;-74
2021/12/05 01:16:54;;;;;;;7.00;2.70;;;;;;;5.40;85.74;98089.56;5049797;28;20194;-75
2021/12/05 01:19:23;;;;;;;5.88;2.63;;;;;;;5.37;86.26;98080.88;5050361;28;20232;-73
2021/12/05 01:21:52;;;;;;;9.45;2.63;;;;;;;5.33;86.48;98085.53;5050729;28;20325;-73
2021/12/05 01:24:29;;;;;;;4.47;2.65;;;;;;;5.43;86.63;98086.69;5050251;28;20260;-73
2021/12/05 01:27:02;;;;;;;7.63;2.60;;;;;;;5.61;85.64;98074.03;5030312;28;20682;-72
2021/12/05 01:29:39;;;;;;;4.60;2.00;;;;;;;5.68;85.33;98073.66;5031173;28;20213;-73
2021/12/05 01:32:16;;;;;;;4.60;1.95;;;;;;;5.54;85.90;98072.69;5031172;28;20253;-74
2021/12/05 01:35:00;;;;;;;2.97;2.08;;;;;;;5.41;85.48;98079.75;5050188;28;20245;-73
2021/12/05 01:37:36;;;;;;;3.90;2.17;;;;;;;5.39;86.85;98074.47;5050621;28;20190;-74
2021/12/05 01:40:39;;;;;;;5.65;2.08;;;;;;;5.39;86.66;98077.16;5050780;28;20212;-73
2021/12/05 01:46:30;;;;;;;3.72;2.15;;;;;;;5.27;87.71;98058.34;5030283;28;20190;-73
2021/12/05 01:51:58;;;;;;;6.88;2.20;;;;;;;5.42;87.40;98058.28;5052521;28;20255;-73
2021/12/05 01:54:45;;;;;;;5.47;2.50;;;;;;;5.63;86.21;98052.53;5041257;28;20246;-74
2021/12/05 02:11:41;;;;;;;4.18;2.00;;;;;;;5.59;86.30;98030.53;5106221;28;20251;-74
2021/12/05 02:33:57;;;;;;;5.00;1.60;;;;;;;5.90;83.82;98025.94;5089072;28;20513;-73
2021/12/05 02:39:26;;;;;;;2.67;1.40;;;;;;;5.68;84.17;98034.44;5089096;28;20187;-72
2021/12/05 02:41:55;;;;;;;3.75;1.50;;;;;;;5.85;84.01;98038.69;5079275;28;20602;-74
2021/12/05 02:44:24;;;;;;;3.95;2.05;;;;;;;5.88;83.75;98027.84;5088973;28;20291;-74
2021/12/05 02:46:58;;;;;;;3.70;2.20;;;;;;;5.90;83.62;98027.72;5088606;28;20207;-74
2021/12/05 02:49:26;;;;;;;3.97;2.10;;;;;;;5.99;84.25;98028.03;5088716;28;20197;-72
2021/12/05 02:51:57;;;;;;;3.90;2.10;;;;;;;6.03;84.16;98023.34;5074322;28;20217;-72
2021/12/05 02:54:27;;;;;;;3.60;1.83;;;;;;;6.13;83.20;98020.91;5074297;28;20652;-72
2021/12/05 02:56:54;;;;;;;5.47;2.28;;;;;;;6.15;82.78;98019.00;5088916;28;20229;-73
2021/12/05 02:59:28;;;;;;;7.45;2.45;;;;;;;6.23;82.18;98025.56;5088449;28;20228;-74
2021/12/05 03:02:00;;;;;;;6.10;1.90;;;;;;;6.35;81.53;98023.06;5074549;28;20225;-73
2021/12/05 03:04:32;;;;;;;3.35;1.90;;;;;;;6.34;81.83;98027.53;5087361;28;20283;-74
2021/12/05 03:07:00;;;;;;;4.30;1.60;;;;;;;6.37;81.55;98030.00;5087010;28;20250;-71
2021/12/05 03:09:27;;;;;;;3.33;1.88;;;;;;;6.14;81.89;98017.31;5088470;28;20204;-74
2021/12/05 03:11:54;;;;;;;5.13;1.90;;;;;;;6.24;81.83;98021.06;5072088;28;20308;-72
2021/12/05 03:14:21;;;;;;;8.05;2.42;;;;;;;6.33;81.54;98023.19;5067918;28;20202;-72
2021/12/05 03:16:49;;;;;;;4.95;2.35;;;;;;;6.15;81.80;98014.53;5068420;28;20529;-73
2021/12/05 03:19:16;;;;;;;4.47;1.77;;;;;;;5.91;82.71;98008.94;5068363;28;20530;-72
2021/12/05 03:21:48;;;;;;;5.55;1.52;;;;;;;6.07;82.13;98007.97;5082205;28;20189;-73
2021/12/05 03:24:17;;;;;;;5.95;1.65;;;;;;;6.02;82.33;98003.78;5088404;28;20185;-73
2021/12/05 03:26:48;;;;;;;8.52;2.70;;;;;;;6.09;82.88;97998.91;5088017;28;20194;-73
2021/12/05 03:29:17;;;;;;;2.80;1.67;;;;;;;6.11;82.76;97998.81;5088190;28;20277;-73
2021/12/05 03:31:45;;;;;;;3.70;1.55;;;;;;;6.23;82.00;98001.53;5073828;28;20226;-73
2021/12/05 03:34:15;;;;;;;4.82;2.10;;;;;;;6.12;82.23;97997.84;5067964;28;20582;-72
2021/12/05 03:36:46;;;;;;;3.67;1.90;;;;;;;5.99;83.24;97992.44;5067821;28;20566;-73
2021/12/05 03:39:14;;;;;;;4.50;2.00;;;;;;;6.05;83.02;97992.03;5067935;28;20588;-73
2021/12/05 03:41:42;;;;;;;3.33;1.70;;;;;;;5.99;83.02;97998.66;5081018;28;20275;-74
2021/12/05 03:44:10;;;;;;;4.22;1.60;;;;;;;5.96;83.61;97992.63;5079890;28;20602;-73
2021/12/05 03:46:38;;;;;;;2.72;1.70;;;;;;;5.89;83.89;97991.31;5074184;28;20207;-73
2021/12/05 03:49:07;;;;;;;5.95;2.00;;;;;;;5.91;84.42;97987.56;5074506;28;20190;-73
2021/12/05 03:51:37;;;;;;;6.60;2.00;;;;;;;5.88;84.81;97989.56;5063059;28;20630;-73
2021/12/05 03:54:06;;;;;;;3.10;1.98;;;;;;;5.94;84.17;97989.19;5053888;28;20231;-73
2021/12/05 03:56:35;;;;;;;7.18;2.17;;;;;;;6.05;83.83;97984.88;5054796;28;20281;-73
2021/12/05 03:59:03;;;;;;;6.40;2.00;;;;;;;6.07;83.73;97989.28;5054218;28;20282;-73
2021/12/05 04:01:30;;;;;;;6.93;1.75;;;;;;;5.99;83.68;97987.97;5067098;28;20655;-73
2021/12/05 04:03:56;;;;;;;4.35;1.85;;;;;;;5.99;84.08;97982.63;5073946;28;20196;-73
2021/12/05 04:06:26;;;;;;;2.45;1.70;;;;;;;5.89;84.95;97976.13;5074125;28;20661;-72
2021/12/05 04:08:54;;;;;;;6.90;1.73;;;;;;;5.78;84.98;97974.13;5073968;28;20192;-73
2021/12/05 04:11:28;;;;;;;4.35;1.77;;;;;;;5.49;86.98;97959.13;5072332;28;20220;-73
2021/12/05 04:13:56;;;;;;;3.35;1.98;;;;;;;5.62;87.52;97966.25;5073594;28;20705;-73
2021/12/05 04:16:24;;;;;;;3.38;1.90;;;;;;;5.72;86.76;97971.00;5073841;28;20201;-73
2021/12/05 04:18:51;;;;;;;4.38;2.95;;;;;;;5.63;87.47;97959.97;5073526;28;20201;-74
2021/12/05 04:21:19;;;;;;;4.70;2.53;;;;;;;5.73;87.90;97962.06;5062577;28;20212;-74
2021/12/05 04:23:48;;;;;;;3.22;2.20;;;;;;;5.73;87.90;97962.06;5053839;28;20640;-72
2021/12/05 04:26:14;;;;;;;4.80;1.85;;;;;;;5.76;87.90;97957.34;5053515;28;20279;-73
2021/12/05 04:28:43;;;;;;;3.58;2.00;;;;;;;5.83;87.18;97955.13;5053353;28;20198;-73
2021/12/05 04:31:09;;;;;;;5.50;2.50;;;;;;;5.83;87.66;97963.16;5053884;28;20703;-73
2021/12/05 04:33:36;;;;;;;4.45;2.35;;;;;;;5.77;87.14;97959.09;5071402;28;20324;-73
2021/12/05 04:36:04;;;;;;;4.93;2.40;;;;;;;5.85;87.01;97959.41;5073454;28;20623;-72
2021/12/05 04:38:31;;;;;;;6.45;2.08;;;;;;;5.79;87.26;97961.66;5073650;28;20272;-72
2021/12/05 04:40:57;;;;;;;5.55;2.70;;;;;;;5.92;86.69;97959.88;5065246;28;20236;-74
2021/12/05 04:43:24;;;;;;;3.85;1.75;;;;;;;5.82;86.85;97958.78;5053440;28;20651;-74
2021/12/05 04:45:52;;;;;;;2.33;1.70;;;;;;;5.89;86.97;97962.75;5061480;28;20276;-74
2021/12/05 04:48:19;;;;;;;6.20;1.70;;;;;;;5.81;87.24;97954.38;5073161;28;20205;-74
2021/12/05 04:50:47;;;;;;;5.95;1.90;;;;;;;5.82;87.79;97956.13;5065024;28;20193;-74
2021/12/05 04:53:14;;;;;;;3.75;2.13;;;;;;;5.82;88.33;97954.28;5052835;28;20321;-72
2021/12/05 04:55:41;;;;;;;3.65;2.38;;;;;;;5.80;88.47;97956.19;5052183;28;20625;-74
2021/12/05 04:58:08;;;;;;;5.05;2.72;;;;;;;5.83;88.71;97953.34;5052794;28;20684;-72
2021/12/05 05:00:45;;;;;;;4.25;2.30;;;;;;;5.73;87.24;97948.69;5057252;28;20690;-74
2021/12/05 05:03:14;;;;;;;3.83;2.33;;;;;;;5.74;87.03;97945.06;5072591;28;20199;-72
2021/12/05 05:05:47;;;;;;;4.13;2.30;;;;;;;5.63;86.30;97959.09;5072654;28;20296;-73
2021/12/05 05:08:14;;;;;;;5.30;2.10;;;;;;;5.67;86.67;97946.41;5073078;28;20547;-72
2021/12/05 05:10:41;;;;;;;5.25;2.15;;;;;;;5.79;85.83;97950.97;5065710;28;20204;-72
2021/12/05 05:13:08;;;;;;;3.60;2.17;;;;;;;5.81;85.92;97954.38;5052738;28;20572;-72
2021/12/05 05:15:35;;;;;;;4.13;1.92;;;;;;;5.72;85.34;97950.53;5052411;28;20182;-72
2021/12/05 05:18:04;;;;;;;4.03;1.98;;;;;;;5.77;84.82;97951.06;5052792;28;20219;-74
2021/12/05 05:20:37;;;;;;;2.08;1.60;;;;;;;5.66;85.11;97958.06;5057098;28;20192;-74
2021/12/05 05:23:19;;;;;;;4.10;2.25;;;;;;;5.81;84.81;97957.06;5072364;28;20186;-74
2021/12/05 05:39:44;;;;;;;4.75;1.77;;;;;;;6.07;84.56;97958.06;5072189;28;20186;-73
2021/12/05 05:45:20;;;;;;;2.88;2.10;;;;;;;5.92;85.24;97956.38;5051892;28;20267;-72
2021/12/05 05:48:02;;;;;;;7.07;2.10;;;;;;;5.70;85.98;97952.44;5052238;28;20208;-74
2021/12/05 05:50:29;;;;;;;2.90;1.83;;;;;;;5.80;86.31;97952.69;5056783;28;20193;-73
2021/12/05 05:52:57;;;;;;;7.35;2.00;;;;;;;5.66;86.33;97958.06;5071713;28;20217;-73
2021/12/05 05:55:24;;;;;;;3.20;1.65;;;;;;;5.67;86.29;97952.59;5071784;28;20192;-73
2021/12/05 05:58:02;;;;;;;2.30;1.30;;;;;;;5.84;86.92;97949.72;5069745;28;20621;-73
2021/12/05 06:00:34;;;;;;;8.82;2.00;;;;;;;5.97;86.22;97954.28;5072260;28;20205;-73
2021/12/05 06:03:21;;;;;;;5.75;2.42;;;;;;;5.87;87.10;97966.50;5071907;28;20186;-72
2021/12/05 06:05:51;;;;;;;2.35;1.40;;;;;;;5.83;86.41;97968.50;5071937;28;20243;-73
2021/12/05 06:08:21;;;;;;;5.90;2.00;;;;;;;5.74;86.86;97971.75;5071469;28;20197;-74
2021/12/05 06:10:48;;;;;;;5.55;2.05;;;;;;;5.68;88.88;97970.34;5052618;28;20626;-74
2021/12/05 06:13:18;;;;;;;2.35;2.08;;;;;;;5.77;88.59;97967.09;5051638;28;20557;-72
2021/12/05 06:15:45;;;;;;;6.68;2.88;;;;;;;5.81;88.78;97973.97;5051807;28;20271;-74
2021/12/05 06:18:12;;;;;;;1.65;1.50;;;;;;;5.83;87.40;97981.84;5065581;28;20201;-73
2021/12/05 06:20:38;;;;;;;5.20;1.92;;;;;;;6.03;85.54;97985.94;5070369;28;20190;-74
2021/12/05 06:23:05;;;;;;;3.65;1.65;;;;;;;6.02;85.11;97993.09;5071474;28;20255;-72
2021/12/05 06:25:37;;;;;;;4.53;1.70;;;;;;;5.95;84.58;97989.13;5069968;28;20240;-73
2021/12/05 06:28:09;;;;;;;4.13;1.70;;;;;;;6.03;84.63;97993.94;5071314;28;20188;-73
2021/12/05 06:30:46;;;;;;;1.95;1.35;;;;;;;6.02;84.96;97990.44;5058474;28;20206;-74
2021/12/05 06:41:58;;;;;;;4.07;1.92;;;;;;;5.92;85.64;97985.75;5009407;28;20290;-72
2021/12/05 06:47:12;;;;;;;3.17;2.20;;;;;;;5.84;85.60;97988.94;5037370;28;20208;-73
2021/12/05 06:49:40;;;;;;;5.22;2.15;;;;;;;5.91;85.15;97995.59;5053819;28;20697;-73
2021/12/05 06:52:08;;;;;;;2.97;1.88;;;;;;;5.91;85.26;97984.91;5071495;28;20288;-74
2021/12/05 06:54:36;;;;;;;2.63;1.80;;;;;;;5.71;85.22;97986.19;5070975;28;20587;-74
2021/12/05 06:57:05;;;;;;;3.63;2.15;;;;;;;5.45;86.29;97987.84;5071529;28;20255;-74
2021/12/05 06:59:32;;;;;;;2.70;1.80;;;;;;;5.55;86.78;97994.31;5067444;28;20281;-71
2021/12/05 07:01:59;;;;;;;4.30;1.98;;;;;;;5.60;86.59;97986.00;5051198;28;20201;-73
2021/12/05 07:04:47;;;;;;;2.30;2.10;;;;;;;5.54;86.04;97989.94;5051124;28;20277;-74
2021/12/05 07:07:19;;;;;;;6.40;2.30;;;;;;;5.65;85.88;97986.56;5051298;28;20625;-73
2021/12/05 07:09:47;;;;;;;4.30;1.77;;;;;;;5.46;86.74;97986.88;5052084;28;20199;-72
2021/12/05 07:15:03;;;;;;;2.63;1.83;;;;;;;5.68;86.27;97985.53;5052854;28;20248;-73
2021/12/05 07:20:11;;;;;;;2.73;1.77;;;;;;;5.87;84.17;97991.38;5067774;28;20360;-74
2021/12/05 07:22:49;;;;;;;2.75;2.17;;;;;;;5.92;83.90;97988.41;5055031;28;20281;-73
2021/12/05 07:25:28;;;;;;;6.65;3.15;;;;;;;5.81;85.04;97989.97;5054839;28;20549;-73
2021/12/05 07:41:48;;;;;;;4.70;2.40;;;;;;;5.97;87.42;98002.34;5074553;28;20262;-73
2021/12/05 07:44:17;;;;;;;3.50;2.25;;;;;;;5.95;88.11;98005.16;5076193;28;20641;-74
2021/12/05 07:46:45;;;;;;;3.05;2.10;;;;;;;5.96;87.54;98008.66;5083153;28;20204;-74
2021/12/05 07:49:13;;;;;;;5.63;2.50;;;;;;;6.01;86.39;98004.72;5074489;28;20564;-75
2021/12/05 07:51:44;;;;;;;2.42;1.63;;;;;;;5.79;85.76;98004.41;5072615;28;20250;-73
2021/12/05 07:54:12;;;;;;;2.28;1.80;;;;;;;5.74;87.91;98010.00;5074168;28;20220;-74
2021/12/05 07:56:47;;;;;;;2.28;2.08;;;;;;;5.66;87.68;98008.81;5074560;28;20208;-75
2021/12/05 07:59:40;;;;;;;2.58;2.08;;;;;;;5.76;88.19;98012.59;5065403;28;20189;-75
2021/12/05 08:16:00;;;;;;;3.10;2.08;;;;;;;5.98;84.37;98007.63;5053913;28;20240;-74
2021/12/05 08:18:27;;;;;;;2.80;1.40;;;;;;;6.05;84.49;98016.94;5053820;28;20263;-75
2021/12/05 08:20:54;;;;;;;2.65;2.15;;;;;;;6.07;83.43;98010.66;5054036;28;20680;-73
2021/12/05 08:23:23;;;;;;;4.10;2.55;;;;;;;6.08;84.40;98021.22;5053953;28;20524;-73
2021/12/05 08:25:56;;;;;;;2.75;2.00;;;;;;;6.16;83.50;98018.91;5056139;28;20198;-74
2021/12/05 08:28:36;;;;;;;2.75;2.42;;;;;;;6.17;83.77;98022.44;5073895;28;20515;-74
2021/12/05 08:31:12;;;;;;;4.68;3.40;;;;;;;6.20;83.91;98032.94;5073375;28;20575;-73
2021/12/05 08:33:51;;;;;;;4.78;2.40;;;;;;;6.32;81.90;98023.25;5073197;28;20290;-74
2021/12/05 08:36:56;;;;;;;2.97;2.40;;;;;;;6.40;82.48;98028.94;5060837;28;20256;-74
2021/12/05 08:39:55;;;;;;;2.78;2.25;;;;;;;6.29;82.18;98032.34;5053669;28;20193;-73
2021/12/05 08:42:39;;;;;;;2.45;2.20;;;;;;;6.23;83.79;98035.41;5053143;28;20259;-73
2021/12/05 09:24:05;;;;;;;2.15;1.90;;;;;;;6.36;82.18;98049.69;5034648;28;20536;-74
2021/12/05 09:26:50;;;;;;;4.32;2.70;;;;;;;6.31;83.24;98053.59;5052252;28;20207;-74
2021/12/05 09:51:40;;;;;;;3.42;2.70;;;;;;;7.04;81.12;98058.56;5051820;28;20198;-74
2021/12/05 10:11:15;;;;;;;3.70;3.20;;;;;;;7.52;74.85;98053.44;5018425;28;20237;-73
2021/12/05 10:13:56;;;;;;;2.15;1.90;;;;;;;7.33;76.75;98067.25;5037809;28;20226;-73
2021/12/05 10:16:52;;;;;;;2.13;1.75;;;;;;;7.45;75.09;98058.34;5051813;28;20615;-73
2021/12/05 10:19:50;;;;;;;3.13;1.85;;;;;;;7.51;75.54;98057.09;5051508;28;20632;-73
2021/12/05 10:33:56;;;;;;;3.58;1.92;;;;;;;7.48;75.67;98066.19;5008966;28;20339;-75
2021/12/05 10:36:27;;;;;;;2.42;1.75;;;;;;;7.63;73.92;98063.41;5009457;28;20622;-76
2021/12/05 10:39:00;;;;;;;2.08;1.55;;;;;;;7.90;73.67;98065.94;5015578;28;20202;-75
2021/12/05 10:44:17;;;;;;;3.25;2.28;;;;;;;8.53;70.82;98056.03;5045379;28;20200;-75
2021/12/05 10:46:49;;;;;;;3.42;2.30;;;;;;;8.44;70.96;98052.19;5079198;28;20218;-76
2021/12/05 10:49:17;;;;;;;3.75;2.30;;;;;;;8.44;71.68;98054.88;5071344;28;20181;-75
2021/12/05 10:51:47;;;;;;;2.63;2.15;;;;;;;8.50;69.79;98046.38;5071391;28;20199;-74
2021/12/05 10:54:17;;;;;;;2.03;1.83;;;;;;;8.59;69.02;98041.28;5072908;28;20224;-76
2021/12/05 10:56:50;;;;;;;2.90;2.00;;;;;;;8.65;67.73;98052.41;5075101;28;20297;-75
2021/12/05 10:59:20;;;;;;;2.70;2.17;;;;;;;8.63;67.83;98053.50;5075137;28;20220;-75
2021/12/05 11:01:48;;;;;;;2.75;1.80;;;;;;;8.43;68.33;98046.94;5075217;28;20185;-75
2021/12/05 11:04:18;;;;;;;2.90;2.08;;;;;;;8.39;68.54;98045.41;5074656;28;20188;-76
2021/12/05 11:06:51;;;;;;;4.88;2.80;;;;;;;8.14;69.07;98040.06;5075203;28;20188;-75
2021/12/05 11:09:22;;;;;;;3.88;2.25;;;;;;;7.92;69.63;98037.22;5074523;28;20198;-75
2021/12/05 11:11:51;;;;;;;3.70;2.13;;;;;;;7.94;70.98;98046.00;5075037;28;20294;-75
2021/12/05 11:14:22;;;;;;;3.45;1.95;;;;;;;7.68;71.76;98034.47;5074474;28;20262;-75
2021/12/05 11:16:54;;;;;;;3.22;2.08;;;;;;;7.63;72.83;98036.63;5075022;28;20196;-75
2021/12/05 11:19:25;;;;;;;3.65;2.00;;;;;;;7.68;72.82;98040.66;5074548;28;20195;-76
2021/12/05 11:21:56;;;;;;;2.90;2.03;;;;;;;7.83;72.45;98032.53;5074675;28;20200;-75
2021/12/05 11:24:27;;;;;;;3.58;2.88;;;;;;;8.27;71.38;98034.63;5074412;28;20188;-75
2021/12/05 11:27:25;;;;;;;2.63;1.80;;;;;;;8.20;70.56;98028.00;5074120;28;20246;-75
2021/12/05 11:29:59;;;;;;;1.95;1.80;;;;;;;8.16;70.81;98029.19;5073606;28;20197;-74
2021/12/05 11:32:33;;;;;;;2.60;2.00;;;;;;;7.76;71.80;98031.25;5074620;28;20670;-75
2021/12/05 11:35:16;;;;;;;4.30;2.60;;;;;;;7.72;72.24;98030.59;5074517;28;20265;-75
2021/12/05 11:37:56;;;;;;;4.35;2.15;;;;;;;7.82;70.84;98037.00;5074797;28;20191;-75
2021/12/05 11:40:25;;;;;;;3.67;2.40;;;;;;;7.88;72.05;98035.72;5074661;28;20639;-75
2021/12/05 11:42:55;;;;;;;5.05;3.58;;;;;;;7.96;71.22;98038.72;5074332;28;20273;-75
2021/12/05 11:45:24;;;;;;;2.85;2.63;;;;;;;8.02;71.45;98040.94;5074446;28;20198;-75
2021/12/05 11:47:53;;;;;;;3.72;1.92;;;;;;;7.94;70.24;98040.63;5074565;28;20598;-75
2021/12/05 11:50:20;;;;;;;2.70;1.80;;;;;;;7.89;71.12;98040.97;5073616;28;20283;-74
2021/12/05 11:52:49;;;;;;;3.22;2.60;;;;;;;7.95;71.15;98039.66;5074207;28;20203;-75
2021/12/05 11:55:24;;;;;;;3.03;1.75;;;;;;;8.25;70.09;98031.19;5073734;28;20259;-76
2021/12/05 11:57:51;;;;;;;4.57;1.95;;;;;;;8.41;69.46;98035.47;5073700;28;20192;-76
2021/12/05 12:00:19;;;;;;;2.25;1.52;;;;;;;8.03;70.44;98023.88;5058159;28;20208;-76
2021/12/05 12:02:48;;;;;;;3.28;1.83;;;;;;;8.12;71.02;98025.91;5053679;28;20191;-76
2021/12/05 12:05:19;;;;;;;2.33;1.77;;;;;;;8.09;70.47;98028.78;5052837;28;20302;-75
2021/12/05 12:07:49;;;;;;;2.63;1.75;;;;;;;7.98;71.59;98026.03;5053988;28;20198;-76
2021/12/05 12:10:19;;;;;;;5.18;1.80;;;;;;;7.94;72.09;98021.88;5053400;28;20229;-77
2021/12/05 12:12:48;;;;;;;6.30;5.10;;;;;;;7.88;72.35;98025.00;5053514;28;20187;-75
2021/12/05 12:15:16;;;;;;;2.85;2.00;;;;;;;7.96;73.42;98011.91;5056827;28;20315;-76
2021/12/05 12:17:44;;;;;;;2.08;1.83;;;;;;;8.00;72.09;98013.38;5072992;28;20204;-76
2021/12/05 12:20:17;;;;;;;2.08;1.75;;;;;;;8.08;71.81;98011.00;5073595;28;20268;-74
2021/12/05 12:22:44;;;;;;;4.70;2.38;;;;;;;8.00;72.62;98017.88;5073526;28;20227;-75
2021/12/05 12:25:15;;;;;;;5.75;3.40;;;;;;;7.85;73.44;98010.00;5073151;28;20192;-76
2021/12/05 12:27:42;;;;;;;4.10;2.00;;;;;;;8.05;72.30;98015.72;5073573;28;20185;-76
2021/12/05 12:30:11;;;;;;;3.83;2.10;;;;;;;7.94;70.96;98009.34;5073444;28;20194;-76
2021/12/05 12:32:43;;;;;;;5.25;2.58;;;;;;;7.99;71.70;98010.81;5072918;28;20308;-76
2021/12/05 12:35:15;;;;;;;3.60;1.80;;;;;;;7.70;70.71;98016.47;5073374;28;20209;-75
2021/12/05 12:38:00;;;;;;;5.15;3.03;;;;;;;7.44;71.62;98010.25;5073114;28;20188;-76
2021/12/05 12:40:36;;;;;;;5.90;2.00;;;;;;;7.48;70.65;98011.75;5072372;28;20278;-75
2021/12/05 12:43:04;;;;;;;3.83;2.20;;;;;;;7.81;69.82;98013.84;5073129;28;20291;-75
2021/12/05 12:45:36;;;;;;;4.03;2.55;;;;;;;7.76;69.41;98017.84;5072713;28;20215;-75
2021/12/05 12:48:09;;;;;;;1.88;1.27;;;;;;;7.59;68.60;98016.38;5072974;28;20185;-76
2021/12/05 12:50:41;;;;;;;8.45;4.93;;;;;;;7.50;69.30;98010.69;5072723;28;20288;-76
2021/12/05 12:53:16;;;;;;;2.88;1.70;;;;;;;7.49;68.89;98014.34;5072696;28;20195;-75
2021/12/05 12:55:51;;;;;;;2.65;1.50;;;;;;;7.74;67.77;98004.56;5071455;28;20223;-75
2021/12/05 12:58:42;;;;;;;2.83;1.75;;;;;;;7.47;69.01;98015.41;5071870;28;20187;-75
2021/12/05 13:01:30;;;;;;;3.05;1.63;;;;;;;7.45;69.05;98014.66;5071259;28;20212;-75
2021/12/05 13:10:06;;;;;;;5.13;2.40;;;;;;;8.02;69.80;98016.81;5071977;28;20195;-74
2021/12/05 13:12:49;;;;;;;2.58;2.25;;;;;;;8.26;68.16;98021.34;5071613;28;20222;-75
2021/12/05 13:15:21;;;;;;;10.93;9.88;;;;;;;8.22;68.68;98025.22;5064665;28;20216;-76
2021/12/05 13:17:50;;;;;;;3.50;2.42;;;;;;;8.18;66.80;98026.41;5060567;28;20295;-75
2021/12/05 13:20:20;;;;;;;2.53;2.30;;;;;;;8.08;66.84;98024.41;5071321;28;20295;-75
2021/12/05 13:23:08;;;;;;;2.03;1.73;;;;;;;8.20;66.72;98028.00;5071223;28;20204;-75
2021/12/05 13:26:02;;;;;;;5.03;2.75;;;;;;;8.03;67.84;98028.41;5070771;28;20291;-75
2021/12/05 13:28:31;;;;;;;3.10;2.42;;;;;;;7.82;66.71;98030.78;5072242;28;20307;-76
2021/12/05 13:30:59;;;;;;;1.85;1.35;;;;;;;7.71;66.14;98037.78;5071566;28;20276;-74
2021/12/05 13:33:31;;;;;;;2.65;1.48;;;;;;;7.61;67.29;98030.50;5071218;28;20241;-75
2021/12/05 13:35:58;;;;;;;3.00;1.75;;;;;;;7.49;67.33;98025.06;5071579;28;20562;-75
2021/12/05 13:38:40;;;;;;;5.28;3.03;;;;;;;7.44;68.66;98031.69;5071514;28;20207;-75
2021/12/05 13:41:14;;;;;;;2.97;1.80;;;;;;;7.21;67.18;98034.19;5071575;28;20211;-75
2021/12/05 13:43:42;;;;;;;2.15;1.95;;;;;;;7.08;69.29;98036.81;5071485;28;20189;-75
2021/12/05 13:46:32;;;;;;;2.00;1.65;;;;;;;7.39;68.67;98031.16;5071281;28;20201;-75
2021/12/05 13:48:59;;;;;;;3.40;2.15;;;;;;;7.74;67.08;98034.03;5071321;28;20217;-75
2021/12/05 13:51:26;;;;;;;3.25;2.65;;;;;;;7.81;66.08;98031.78;5071267;28;20188;-75
2021/12/05 13:53:59;;;;;;;6.15;2.65;;;;;;;7.53;67.11;98039.09;5071195;28;20235;-76
2021/12/05 13:56:27;;;;;;;5.43;3.13;;;;;;;7.69;67.18;98041.53;5078871;28;20244;-75
2021/12/05 13:58:59;;;;;;;5.35;2.97;;;;;;;7.88;66.82;98039.25;5071099;28;20214;-76
2021/12/05 14:01:29;;;;;;;3.85;2.88;;;;;;;7.98;64.69;98042.09;5071843;28;20256;-76
2021/12/05 14:04:03;;;;;;;5.68;3.00;;;;;;;7.59;65.43;98038.63;5071320;28;20262;-75
2021/12/05 14:06:47;;;;;;;4.97;3.13;;;;;;;7.66;66.64;98036.38;5071338;28;20283;-75
2021/12/05 14:09:21;;;;;;;3.85;3.03;;;;;;;7.88;66.59;98041.06;5071654;28;20188;-76
2021/12/05 14:11:54;;;;;;;5.72;2.95;;;;;;;8.10;65.36;98049.28;5071362;28;20650;-76
2021/12/05 14:14:24;;;;;;;3.60;3.25;;;;;;;8.25;63.92;98038.38;5061361;28;20268;-76
2021/12/05 14:16:53;;;;;;;3.33;2.70;;;;;;;8.29;63.77;98039.88;5055443;28;20240;-76
2021/12/05 14:19:24;;;;;;;12.10;7.63;;;;;;;8.18;63.61;98042.50;5068602;28;20228;-76
2021/12/05 14:21:53;;;;;;;8.43;4.05;;;;;;;8.24;62.90;98044.72;5071251;28;20236;-76
2021/12/05 14:24:23;;;;;;;7.80;4.88;;;;;;;8.20;61.97;98046.78;5071525;28;20283;-76
2021/12/05 14:26:53;;;;;;;7.68;2.95;;;;;;;8.09;62.55;98044.88;5051410;28;20260;-76
2021/12/05 14:29:24;;;;;;;5.78;3.90;;;;;;;8.02;63.40;98059.69;5053372;28;20216;-75
2021/12/05 14:31:54;;;;;;;3.13;2.05;;;;;;;8.07;62.60;98057.56;5071352;28;20238;-76
2021/12/05 14:34:21;;;;;;;6.40;3.15;;;;;;;8.02;63.17;98062.38;5071164;28;20628;-76
2021/12/05 14:36:52;;;;;;;4.30;2.13;;;;;;;7.96;63.18;98061.94;5071048;28;20216;-77
2021/12/05 14:39:25;;;;;;;7.18;2.70;;;;;;;7.76;64.36;98052.69;5071105;28;20190;-77
2021/12/05 14:41:54;;;;;;;2.78;2.30;;;;;;;7.85;63.98;98063.59;5071572;28;20286;-75
2021/12/05 14:44:22;;;;;;;2.65;2.45;;;;;;;7.64;64.62;98074.03;5071404;28;20205;-76
2021/12/05 14:47:01;;;;;;;4.40;3.67;;;;;;;7.78;64.54;98072.16;5071392;28;20186;-76
2021/12/05 14:49:30;;;;;;;3.28;2.97;;;;;;;7.68;64.73;98078.16;5071387;28;20188;-75
2021/12/05 14:51:59;;;;;;;3.67;2.95;;;;;;;7.70;64.17;98080.75;5071113;28;20184;-76
2021/12/05 14:54:33;;;;;;;3.40;2.53;;;;;;;7.58;65.61;98090.50;5071304;28;20196;-76
2021/12/05 14:57:04;;;;;;;4.63;4.20;;;;;;;7.69;65.30;98085.25;5070314;28;20560;-77
2021/12/05 14:59:31;;;;;;;4.32;3.13;;;;;;;7.76;65.46;98082.16;5071000;28;20646;-77
2021/12/05 15:01:58;;;;;;;5.55;3.67;;;;;;;7.59;66.39;98094.03;5070359;28;20282;-77
2021/12/05 15:04:30;;;;;;;2.85;2.17;;;;;;;7.69;66.52;98087.94;5071237;28;20186;-76
2021/12/05 15:06:58;;;;;;;4.07;2.42;;;;;;;7.81;65.91;98093.41;5070842;28;20615;-76
2021/12/05 15:09:30;;;;;;;3.53;3.20;;;;;;;7.77;66.53;98099.94;5070953;28;20279;-77
2021/12/05 15:12:01;;;;;;;3.95;2.90;;;;;;;7.69;66.96;98106.69;5070559;28;20212;-76
2021/12/05 15:14:29;;;;;;;3.70;2.10;;;;;;;7.62;67.09;98109.88;5070815;28;20649;-76
2021/12/05 15:17:04;;;;;;;6.75;4.47;;;;;;;7.38;68.00;98125.84;5053359;28;20240;-75
2021/12/05 15:19:31;;;;;;;8.77;3.50;;;;;;;7.38;68.58;98124.03;5060017;28;20207;-77
2021/12/05 15:21:59;;;;;;;5.90;4.20;;;;;;;7.47;68.01;98127.88;5070252;28;21087;-76
2021/12/05 15:24:28;;;;;;;3.70;3.22;;;;;;;7.50;68.30;98133.88;5070655;28;20243;-76
2021/12/05 15:26:58;;;;;;;3.20;2.45;;;;;;;7.45;68.24;98135.16;5070113;28;20548;-75
2021/12/05 15:29:26;;;;;;;6.90;2.53;;;;;;;7.34;68.50;98133.22;5071064;28;20546;-75
2021/12/05 15:31:54;;;;;;;4.13;2.60;;;;;;;7.20;69.59;98138.66;5070597;28;20259;-76
2021/12/05 15:34:25;;;;;;;7.35;4.75;;;;;;;7.16;69.82;98142.50;5069567;28;20549;-76
2021/12/05 15:36:52;;;;;;;10.00;6.97;;;;;;;7.26;69.68;98141.78;5070533;28;20223;-77
2021/12/05 15:39:23;;;;;;;4.47;3.60;;;;;;;7.36;68.65;98150.03;5070755;28;20194;-76
2021/12/05 15:41:51;;;;;;;4.15;2.58;;;;;;;7.22;69.20;98148.31;5074177;28;20195;-76
2021/12/05 15:44:34;;;;;;;4.57;2.97;;;;;;;7.20;69.72;98158.25;5073428;28;20197;-74
2021/12/05 15:47:09;;;;;;;4.50;2.75;;;;;;;7.06;71.19;98150.31;5072793;28;20553;-76
2021/12/05 15:50:06;;;;;;;5.00;2.72;;;;;;;7.08;71.26;98154.59;5073968;28;20197;-74
2021/12/05 15:52:37;;;;;;;7.72;6.15;;;;;;;7.08;71.66;98159.94;5030927;28;20211;-75
2021/12/05 15:55:07;;;;;;;3.78;2.75;;;;;;;7.11;71.17;98164.22;5031299;28;20298;-77
2021/12/05 15:57:36;;;;;;;4.10;2.70;;;;;;;6.95;72.33;98169.75;5029508;28;20215;-75
2021/12/05 16:00:11;;;;;;;6.72;3.45;;;;;;;7.13;71.76;98172.16;5011965;28;20237;-76
2021/12/05 16:02:40;;;;;;;4.00;3.00;;;;;;;7.07;72.29;98168.91;5012036;28;20676;-76
2021/12/05 16:05:15;;;;;;;4.45;2.88;;;;;;;7.18;72.37;98178.91;5011844;28;20267;-76
2021/12/05 16:07:42;;;;;;;4.50;2.60;;;;;;;7.16;71.84;98178.16;5011712;28;20235;-76
2021/12/05 16:10:15;;;;;;;4.07;2.40;;;;;;;7.22;71.78;98184.94;5012265;28;20514;-75
2021/12/05 16:12:44;;;;;;;3.95;3.00;;;;;;;7.23;71.81;98184.81;5011878;28;20214;-76
2021/12/05 16:15:13;;;;;;;3.28;2.55;;;;;;;7.14;72.35;98189.94;5011420;28;20207;-75
2021/12/05 16:17:41;;;;;;;4.28;2.97;;;;;;;7.28;72.34;98187.16;5011640;28;20191;-76